Carmichael, Mississippi
Current Conditions -  °F | °C
As of 5:53 AM on Thursday 29 Jan 2015 (Local Time) from KHBG Reporting Station
Clear Clear  
Wind Chill: 36°   Ceiling: Unl
Heat Index: 36°   Visibility: 10mi
Dew Point: 34°   Wind: 3mph
Humidity: 93%   Direction: 150°SSE
Pressure: 30.24"   Gusts: NA
Location:  31.0408°N, 88.8997°W
Report Text: KHBG 291153Z AUTO 15003KT 10SM CLR 02/01 A3024 RMK AO2 SLP240 T00220011 10067 20022 50003
Loading
Personal Weather Stations






























Interactive Weather Map New forecast layout! Learn more

10-Day Weather Forecast

Advertisements
Track Severe Weather on mobile